Time;durP1;ratioP1;P1;durP2;ratioP2;P2;SDS_P1;SDS_P2;PMS_P1;PMS_P2;Temp;Humidity;BMP_temperature;BMP_pressure;BME280_temperature;BME280_humidity;BME280_pressure;Samples;Min_cycle;Max_cycle;Signal;HPM_P1;HPM_P2
2022/03/15 00:01:49;;;;;;;3.05;1.42;;;;;;;0.34;56.91;102792.13;5043266;28;20037;-78
2022/03/15 00:04:14;;;;;;;1.88;1.15;;;;;;;0.34;56.84;102794.72;5037008;28;20041;-78
2022/03/15 00:06:40;;;;;;;3.95;1.00;;;;;;;0.30;56.93;102793.75;5026635;28;20573;-80
2022/03/15 00:09:05;;;;;;;1.90;1.05;;;;;;;0.23;56.81;102786.63;5043051;28;20041;-79
2022/03/15 00:11:34;;;;;;;4.60;1.45;;;;;;;0.16;56.57;102785.53;5024014;28;20032;-78
2022/03/15 00:14:02;;;;;;;2.17;1.23;;;;;;;0.15;56.85;102791.53;4997687;28;20144;-79
2022/03/15 00:16:28;;;;;;;4.82;1.48;;;;;;;0.17;56.74;102783.88;5039840;28;20037;-78
2022/03/15 00:18:53;;;;;;;2.08;1.58;;;;;;;0.13;56.34;102789.72;5041013;28;20039;-78
2022/03/15 00:21:19;;;;;;;4.25;1.38;;;;;;;-0.00;56.83;102788.41;5026177;28;20525;-77
2022/03/15 00:23:44;;;;;;;22.98;2.90;;;;;;;-0.01;57.28;102786.69;5024376;28;20102;-78
2022/03/15 00:26:10;;;;;;;2.50;1.73;;;;;;;-0.02;57.81;102790.94;5044137;28;20131;-79
2022/03/15 00:28:36;;;;;;;4.43;2.13;;;;;;;0.04;57.40;102791.16;5040402;28;20403;-79
2022/03/15 00:31:01;;;;;;;3.33;1.88;;;;;;;0.01;56.96;102792.72;5038095;28;20096;-80
2022/03/15 00:33:29;;;;;;;3.45;1.45;;;;;;;-0.01;56.63;102795.25;5021815;28;20295;-78
2022/03/15 00:35:55;;;;;;;3.10;1.85;;;;;;;-0.01;56.45;102802.13;5020163;28;20489;-79
2022/03/15 00:38:21;;;;;;;4.90;2.40;;;;;;;-0.17;56.76;102796.44;5020099;28;20033;-79
2022/03/15 00:40:46;;;;;;;2.60;1.80;;;;;;;-0.16;57.06;102797.28;5024372;28;20056;-80
2022/03/15 00:43:14;;;;;;;4.72;2.85;;;;;;;-0.09;56.82;102795.81;5040877;28;20044;-79
2022/03/15 00:45:40;;;;;;;8.52;1.95;;;;;;;-0.08;56.93;102789.84;5035763;28;20044;-78
2022/03/15 00:48:07;;;;;;;3.47;2.13;;;;;;;-0.03;56.75;102793.47;5037458;28;20052;-80
2022/03/15 00:50:39;;;;;;;6.88;2.13;;;;;;;0.04;56.52;102785.13;5020251;28;20033;-79
2022/03/15 00:53:04;;;;;;;6.57;2.43;;;;;;;-0.02;56.43;102783.22;5037337;28;20123;-78
2022/03/15 00:55:30;;;;;;;3.15;1.95;;;;;;;-0.10;56.46;102782.09;5036746;28;20478;-80
2022/03/15 00:57:55;;;;;;;3.63;1.92;;;;;;;-0.05;56.59;102779.69;5040293;28;20067;-79
2022/03/15 01:00:22;;;;;;;4.80;2.25;;;;;;;-0.08;56.27;102776.97;5041848;28;20032;-78
2022/03/15 01:02:49;;;;;;;6.75;2.13;;;;;;;-0.02;56.36;102784.91;5035844;28;20052;-80
2022/03/15 01:05:16;;;;;;;4.68;2.55;;;;;;;-0.13;56.22;102772.56;5022094;28;20060;-79
2022/03/15 01:07:41;;;;;;;3.15;1.88;;;;;;;-0.17;56.82;102778.44;5034877;28;20422;-80
2022/03/15 01:10:07;;;;;;;3.00;2.00;;;;;;;-0.23;56.66;102770.50;5021976;28;20234;-79
2022/03/15 01:12:33;;;;;;;5.82;1.85;;;;;;;-0.32;57.13;102765.03;5021329;28;20052;-79
2022/03/15 01:14:58;;;;;;;6.35;2.13;;;;;;;-0.27;57.59;102760.94;5019509;28;20064;-79
2022/03/15 01:17:24;;;;;;;6.85;2.88;;;;;;;-0.25;58.12;102767.00;5019286;28;20040;-78
2022/03/15 01:19:50;;;;;;;6.00;2.65;;;;;;;-0.16;57.64;102766.44;5041953;28;20071;-79
2022/03/15 01:22:17;;;;;;;3.08;1.65;;;;;;;-0.27;57.54;102771.22;5018554;28;20033;-80
2022/03/15 01:24:43;;;;;;;3.33;1.73;;;;;;;-0.23;57.06;102773.06;5036629;28;20037;-80
2022/03/15 01:27:08;;;;;;;1.88;1.40;;;;;;;-0.19;56.82;102772.38;5018293;28;20037;-79
2022/03/15 01:29:34;;;;;;;3.25;2.13;;;;;;;-0.21;56.75;102781.72;5024357;28;20029;-79
2022/03/15 01:31:59;;;;;;;3.05;2.05;;;;;;;-0.27;56.83;102778.91;5037290;28;20020;-77
2022/03/15 01:34:27;;;;;;;4.53;2.55;;;;;;;-0.34;56.96;102771.81;5037467;28;20176;-78
2022/03/15 01:36:55;;;;;;;5.68;2.83;;;;;;;-0.39;57.29;102774.22;5022265;28;20048;-78
2022/03/15 01:39:21;;;;;;;11.52;3.00;;;;;;;-0.36;57.42;102773.44;5019460;28;20033;-79
2022/03/15 01:41:46;;;;;;;4.03;2.28;;;;;;;-0.32;57.64;102767.59;5040565;28;20033;-79
2022/03/15 01:44:21;;;;;;;6.05;2.17;;;;;;;-0.31;57.32;102769.34;5036912;28;20518;-78
2022/03/15 01:46:48;;;;;;;8.35;3.50;;;;;;;-0.28;57.78;102773.72;5036634;28;20075;-79
2022/03/15 01:49:18;;;;;;;2.92;1.85;;;;;;;-0.13;57.36;102769.97;5018795;28;20040;-79
2022/03/15 01:51:46;;;;;;;10.25;2.40;;;;;;;-0.14;57.04;102770.81;5034339;28;20040;-79
2022/03/15 01:54:13;;;;;;;7.32;3.00;;;;;;;-0.17;57.17;102770.72;5003400;28;20503;-78
2022/03/15 01:56:41;;;;;;;8.50;3.00;;;;;;;-0.24;57.06;102767.88;5020893;28;20040;-80
2022/03/15 01:59:12;;;;;;;7.53;2.35;;;;;;;-0.21;57.67;102763.72;5041870;28;20068;-79
2022/03/15 02:01:39;;;;;;;6.10;2.40;;;;;;;-0.10;57.33;102756.38;5036629;28;20403;-78
2022/03/15 02:04:05;;;;;;;3.60;2.25;;;;;;;-0.09;57.76;102754.69;5000376;28;20049;-79
2022/03/15 02:06:34;;;;;;;6.03;2.55;;;;;;;-0.07;57.82;102771.03;5021669;28;20048;-76
2022/03/15 02:09:06;;;;;;;6.88;3.30;;;;;;;-0.06;57.78;102765.06;5035423;28;20445;-80
2022/03/15 02:11:34;;;;;;;5.28;2.80;;;;;;;0.03;57.37;102760.22;5024347;28;20076;-79
2022/03/15 02:14:00;;;;;;;7.22;2.80;;;;;;;0.04;57.29;102760.28;5034110;28;20406;-79
2022/03/15 02:16:25;;;;;;;7.18;2.58;;;;;;;0.04;57.90;102762.00;5038431;28;20040;-79
2022/03/15 02:18:51;;;;;;;12.60;3.28;;;;;;;0.05;58.34;102762.06;5034330;28;20073;-77
2022/03/15 02:21:16;;;;;;;5.43;2.92;;;;;;;0.16;57.98;102762.41;5020843;28;20033;-79
2022/03/15 02:23:43;;;;;;;7.40;2.97;;;;;;;0.24;57.96;102765.25;5033940;28;20041;-80
2022/03/15 02:26:09;;;;;;;8.48;2.83;;;;;;;0.26;57.46;102756.75;5020399;28;20079;-78
2022/03/15 02:28:34;;;;;;;11.57;2.85;;;;;;;0.23;57.87;102760.91;5040988;28;20559;-78
2022/03/15 02:31:00;;;;;;;8.73;2.75;;;;;;;0.30;57.53;102756.84;5019216;28;20489;-78
2022/03/15 02:33:25;;;;;;;7.35;3.38;;;;;;;0.38;57.67;102755.41;5019544;28;20409;-77
2022/03/15 02:35:51;;;;;;;5.22;3.13;;;;;;;0.36;57.30;102757.03;5035219;28;20037;-78
2022/03/15 02:38:16;;;;;;;6.38;3.53;;;;;;;0.31;57.92;102756.03;5023827;28;20147;-78
2022/03/15 02:40:42;;;;;;;4.53;2.85;;;;;;;0.32;57.45;102750.06;5022647;28;20695;-79
2022/03/15 02:43:07;;;;;;;5.93;3.10;;;;;;;0.27;58.64;102758.47;5023897;28;20126;-77
2022/03/15 02:45:33;;;;;;;11.23;3.38;;;;;;;0.34;58.02;102756.13;5023487;28;20039;-78
2022/03/15 02:47:58;;;;;;;10.20;3.50;;;;;;;0.36;57.85;102754.47;5024411;28;20043;-79
2022/03/15 02:50:24;;;;;;;9.95;3.05;;;;;;;0.33;58.36;102762.09;5041446;28;20037;-78
2022/03/15 02:52:50;;;;;;;11.13;3.85;;;;;;;0.40;58.30;102756.34;5038518;28;20140;-77
2022/03/15 02:55:17;;;;;;;10.98;3.53;;;;;;;0.43;58.00;102753.84;5041080;28;20098;-78
2022/03/15 02:57:45;;;;;;;7.82;2.60;;;;;;;0.48;57.37;102752.31;5038502;28;20055;-77
2022/03/15 03:00:11;;;;;;;13.07;3.42;;;;;;;0.39;57.64;102746.84;5040259;28;20299;-78
2022/03/15 03:02:37;;;;;;;9.50;3.33;;;;;;;0.44;57.50;102756.47;5022140;28;20051;-78
2022/03/15 03:05:02;;;;;;;7.18;3.55;;;;;;;0.30;58.51;102752.59;5022684;28;20545;-78
2022/03/15 03:07:28;;;;;;;13.70;3.58;;;;;;;0.49;57.80;102748.91;5039309;28;20056;-78
2022/03/15 03:09:53;;;;;;;10.00;3.67;;;;;;;0.47;57.53;102745.41;5039170;28;20048;-80
2022/03/15 03:12:19;;;;;;;7.80;3.00;;;;;;;0.45;57.39;102750.50;5038178;28;20055;-78
2022/03/15 03:14:46;;;;;;;11.85;3.50;;;;;;;0.42;57.19;102746.97;5020615;28;20044;-80
2022/03/15 03:17:12;;;;;;;5.82;3.08;;;;;;;0.35;56.96;102745.91;5016630;28;20039;-80
2022/03/15 03:19:39;;;;;;;6.47;2.67;;;;;;;0.26;57.07;102745.59;5038565;28;20406;-78
2022/03/15 03:22:05;;;;;;;6.05;3.03;;;;;;;0.23;56.80;102746.38;5017264;28;20131;-79
2022/03/15 03:24:31;;;;;;;7.57;2.85;;;;;;;0.14;56.75;102751.19;5024654;28;20450;-78
2022/03/15 03:26:56;;;;;;;9.75;3.50;;;;;;;0.10;57.64;102748.47;5040797;28;20087;-79
2022/03/15 03:29:22;;;;;;;11.13;3.45;;;;;;;0.03;57.97;102745.72;5038540;28;20278;-79
2022/03/15 03:31:48;;;;;;;6.80;3.08;;;;;;;0.03;57.76;102758.56;5037829;28;20075;-79
2022/03/15 03:34:14;;;;;;;11.25;4.15;;;;;;;0.05;58.10;102748.31;5038323;28;20601;-79
2022/03/15 03:36:40;;;;;;;5.82;2.47;;;;;;;0.11;57.58;102752.78;5042797;28;20052;-78
2022/03/15 03:39:07;;;;;;;6.05;2.70;;;;;;;0.09;56.92;102750.16;5041202;28;20069;-79
2022/03/15 03:41:33;;;;;;;7.32;3.28;;;;;;;0.04;57.52;102750.00;5037482;28;20441;-79
2022/03/15 03:44:00;;;;;;;10.95;3.35;;;;;;;0.06;57.78;102755.22;5023694;28;20127;-80
2022/03/15 03:46:27;;;;;;;4.55;3.40;;;;;;;0.14;57.35;102756.31;5039116;28;20033;-79
2022/03/15 03:48:54;;;;;;;5.30;2.85;;;;;;;0.25;57.09;102756.69;5035697;28;20135;-79
2022/03/15 03:51:20;;;;;;;9.77;2.45;;;;;;;0.25;56.66;102764.41;5020489;28;20128;-77
2022/03/15 03:53:46;;;;;;;5.10;2.47;;;;;;;0.23;56.83;102763.47;5021880;28;20037;-78
2022/03/15 03:56:12;;;;;;;6.35;3.40;;;;;;;0.19;56.72;102754.81;5022181;28;20036;-78
2022/03/15 03:58:37;;;;;;;6.95;3.00;;;;;;;0.17;57.13;102766.72;5024125;28;20056;-78
2022/03/15 04:01:04;;;;;;;6.68;3.28;;;;;;;0.27;57.28;102758.47;5025557;28;20044;-78
2022/03/15 04:03:31;;;;;;;11.35;3.70;;;;;;;0.34;57.24;102764.69;5038723;28;20395;-77
2022/03/15 04:06:10;;;;;;;14.10;3.45;;;;;;;0.34;57.25;102761.25;5042800;28;20044;-77
2022/03/15 04:08:35;;;;;;;4.28;2.70;;;;;;;0.32;56.88;102750.06;5037822;28;20107;-78
2022/03/15 04:11:06;;;;;;;4.88;2.63;;;;;;;0.31;57.03;102751.75;5023725;28;20033;-78
2022/03/15 04:13:32;;;;;;;4.03;2.90;;;;;;;0.33;56.83;102750.09;5021563;28;20061;-79
2022/03/15 04:15:57;;;;;;;9.63;3.15;;;;;;;0.23;56.81;102735.19;5022312;28;20033;-79
2022/03/15 04:18:23;;;;;;;6.65;2.33;;;;;;;0.23;57.13;102730.94;5038732;28;20051;-78
2022/03/15 04:20:48;;;;;;;4.85;2.20;;;;;;;0.20;56.92;102733.38;5041439;28;20068;-77
2022/03/15 04:23:14;;;;;;;5.70;2.65;;;;;;;0.21;56.93;102724.88;5040477;28;20083;-80
2022/03/15 04:25:40;;;;;;;7.57;3.08;;;;;;;0.27;56.94;102731.91;5025059;28;20063;-81
2022/03/15 04:28:07;;;;;;;6.15;3.40;;;;;;;0.33;56.85;102731.25;5025547;28;20083;-79
2022/03/15 04:30:33;;;;;;;4.15;2.60;;;;;;;0.34;56.97;102738.97;5036972;28;20040;-80
2022/03/15 04:33:01;;;;;;;7.32;3.03;;;;;;;0.23;56.92;102735.19;5022145;28;20046;-77
2022/03/15 04:35:28;;;;;;;3.42;2.03;;;;;;;0.14;57.13;102740.91;5016912;28;20565;-77
2022/03/15 04:37:54;;;;;;;5.90;3.63;;;;;;;0.13;57.53;102739.16;5038095;28;20076;-79
2022/03/15 04:40:20;;;;;;;4.85;3.40;;;;;;;0.18;57.53;102737.59;5018238;28;20079;-78
2022/03/15 04:42:48;;;;;;;8.55;3.53;;;;;;;0.12;57.85;102734.81;5019422;28;20052;-79
2022/03/15 04:45:14;;;;;;;8.63;3.60;;;;;;;0.22;57.70;102738.59;5027728;28;20042;-79
2022/03/15 04:47:40;;;;;;;8.38;3.50;;;;;;;0.25;57.35;102729.25;5004148;28;20057;-78
2022/03/15 04:50:06;;;;;;;4.20;3.00;;;;;;;0.21;57.21;102727.44;5038553;28;20041;-78
2022/03/15 04:52:33;;;;;;;4.07;2.58;;;;;;;0.15;57.15;102724.66;5023873;28;20060;-79
2022/03/15 04:54:58;;;;;;;8.73;4.10;;;;;;;0.14;57.68;102728.03;5022175;28;20035;-79
2022/03/15 04:57:24;;;;;;;5.72;3.78;;;;;;;0.23;57.45;102725.81;5021539;28;20406;-78
2022/03/15 04:59:49;;;;;;;4.43;3.10;;;;;;;0.33;57.62;102726.09;5019023;28;20021;-77
2022/03/15 05:02:15;;;;;;;5.47;3.20;;;;;;;0.41;57.03;102725.53;5036245;28;20359;-81
2022/03/15 05:04:40;;;;;;;7.15;2.75;;;;;;;0.35;57.07;102727.88;5019413;28;20429;-78
2022/03/15 05:07:06;;;;;;;6.28;3.08;;;;;;;0.27;56.95;102730.19;5037067;28;20502;-79
2022/03/15 05:09:31;;;;;;;5.82;2.85;;;;;;;0.21;56.93;102735.16;5024948;28;20461;-77
2022/03/15 05:11:58;;;;;;;4.13;2.13;;;;;;;0.14;56.83;102733.19;5020935;28;20037;-78
2022/03/15 05:14:24;;;;;;;7.53;4.25;;;;;;;0.07;57.34;102733.81;5036144;28;20041;-79
2022/03/15 05:16:49;;;;;;;4.43;2.90;;;;;;;0.14;57.47;102730.59;5042271;28;20994;-78
2022/03/15 05:19:16;;;;;;;6.05;3.38;;;;;;;0.14;57.71;102732.31;5036442;28;20041;-80
2022/03/15 05:21:41;;;;;;;5.90;3.83;;;;;;;0.17;57.66;102729.88;5037042;28;20047;-78
2022/03/15 05:24:07;;;;;;;10.55;5.40;;;;;;;0.22;57.93;102728.31;5019586;28;20445;-79
2022/03/15 05:26:32;;;;;;;5.32;3.55;;;;;;;0.28;57.96;102721.66;5025106;28;20105;-79
2022/03/15 05:28:58;;;;;;;9.57;4.40;;;;;;;0.35;57.88;102719.31;5035436;28;20474;-79
2022/03/15 05:31:26;;;;;;;5.95;3.95;;;;;;;0.44;58.04;102724.75;5044460;28;20375;-79
2022/03/15 05:33:56;;;;;;;8.27;5.00;;;;;;;0.49;57.86;102724.03;5022152;28;20441;-78
2022/03/15 05:36:21;;;;;;;7.85;4.55;;;;;;;0.56;57.86;102725.09;5043393;28;20055;-80
2022/03/15 05:38:47;;;;;;;5.57;3.45;;;;;;;0.64;57.77;102733.09;5023332;28;20400;-79
2022/03/15 05:41:12;;;;;;;8.93;4.85;;;;;;;0.62;57.43;102725.31;5036751;28;20037;-79
2022/03/15 05:43:38;;;;;;;6.80;4.78;;;;;;;0.66;57.46;102727.16;5040974;28;20120;-79
2022/03/15 05:46:04;;;;;;;8.85;4.45;;;;;;;0.71;57.51;102731.56;5020696;28;20429;-79
2022/03/15 05:48:30;;;;;;;11.95;5.65;;;;;;;0.73;57.36;102727.34;5020970;28;20049;-80
2022/03/15 05:50:56;;;;;;;10.02;5.32;;;;;;;0.83;57.47;102729.34;5020399;28;20024;-78
2022/03/15 05:53:21;;;;;;;7.38;4.50;;;;;;;0.79;57.57;102727.50;5037146;28;20032;-78
2022/03/15 05:55:48;;;;;;;11.95;5.22;;;;;;;0.69;57.15;102721.22;5018650;28;20017;-80
2022/03/15 05:58:16;;;;;;;8.45;5.15;;;;;;;0.59;57.11;102724.31;5024471;28;20135;-80
2022/03/15 06:00:42;;;;;;;6.88;4.53;;;;;;;0.60;57.40;102723.53;5040196;28;20055;-78
2022/03/15 06:03:11;;;;;;;6.45;4.28;;;;;;;0.66;57.43;102724.59;5036086;28;20139;-78
2022/03/15 06:05:37;;;;;;;8.63;4.32;;;;;;;0.75;57.83;102725.66;5021135;28;20051;-78
2022/03/15 06:08:03;;;;;;;8.02;5.13;;;;;;;0.92;57.84;102723.63;5020106;28;20537;-77
2022/03/15 06:10:28;;;;;;;7.40;5.13;;;;;;;1.01;57.74;102729.91;5024751;28;20036;-78
2022/03/15 06:12:54;;;;;;;8.48;5.47;;;;;;;1.10;57.72;102725.06;5022267;28;20558;-78
2022/03/15 06:15:21;;;;;;;10.65;6.07;;;;;;;1.08;57.43;102728.38;5025622;28;20024;-82
2022/03/15 06:18:00;;;;;;;8.45;4.88;;;;;;;1.21;57.67;102734.78;5022280;28;20156;-78
2022/03/15 06:20:27;;;;;;;10.98;5.45;;;;;;;1.20;57.50;102736.47;5027787;28;20100;-79
2022/03/15 06:22:56;;;;;;;11.10;6.68;;;;;;;1.26;57.51;102731.50;5043683;28;20100;-77
2022/03/15 06:25:25;;;;;;;16.08;6.85;;;;;;;1.24;57.40;102730.59;5029595;28;20486;-80
2022/03/15 06:27:51;;;;;;;10.50;6.70;;;;;;;1.28;57.64;102736.69;5037367;28;20045;-78
2022/03/15 06:30:19;;;;;;;11.52;6.80;;;;;;;1.24;57.62;102737.44;5027118;28;20134;-78
2022/03/15 06:32:45;;;;;;;12.75;7.32;;;;;;;1.35;58.02;102738.63;5037511;28;20456;-78
2022/03/15 06:35:12;;;;;;;13.32;8.02;;;;;;;1.49;57.98;102739.91;5023431;28;20036;-78
2022/03/15 06:37:45;;;;;;;10.75;7.28;;;;;;;1.70;57.99;102737.03;5038765;28;20063;-79
2022/03/15 06:40:12;;;;;;;11.48;7.57;;;;;;;1.88;57.83;102733.19;5040788;28;20029;-79
2022/03/15 06:42:38;;;;;;;11.85;7.80;;;;;;;1.96;57.53;102733.41;5021198;28;20172;-80
2022/03/15 06:45:06;;;;;;;9.20;6.72;;;;;;;2.03;57.55;102735.31;5039650;28;20029;-79
2022/03/15 06:47:32;;;;;;;12.63;8.18;;;;;;;2.10;57.53;102742.38;5039230;28;20041;-79
2022/03/15 06:49:58;;;;;;;17.15;7.85;;;;;;;2.14;57.48;102733.88;5002726;28;20041;-79
2022/03/15 06:52:23;;;;;;;16.55;9.20;;;;;;;2.14;57.52;102736.44;5041344;28;20502;-78
2022/03/15 06:54:49;;;;;;;15.88;8.55;;;;;;;2.20;57.71;102736.63;5022799;28;20111;-78
2022/03/15 06:57:16;;;;;;;15.40;9.85;;;;;;;2.20;57.85;102743.47;5039344;28;20056;-79
2022/03/15 06:59:42;;;;;;;14.60;7.93;;;;;;;2.26;57.57;102736.75;5039864;28;20372;-78
2022/03/15 07:02:07;;;;;;;18.55;9.27;;;;;;;2.32;57.62;102742.06;5042925;28;20146;-79
2022/03/15 07:04:33;;;;;;;15.35;9.15;;;;;;;2.30;57.27;102738.56;5021609;28;20134;-79
2022/03/15 07:06:58;;;;;;;16.42;9.73;;;;;;;2.28;57.49;102736.78;5022023;28;20193;-79
2022/03/15 07:09:24;;;;;;;15.75;8.90;;;;;;;2.40;57.81;102749.09;5038683;28;20048;-78
2022/03/15 07:11:50;;;;;;;17.55;10.00;;;;;;;2.47;57.84;102743.28;5026003;28;20695;-78
2022/03/15 07:14:16;;;;;;;21.95;10.55;;;;;;;2.50;57.80;102745.94;5021475;28;20132;-80
2022/03/15 07:16:42;;;;;;;25.30;11.88;;;;;;;2.45;57.31;102735.50;5039119;28;20037;-78
2022/03/15 07:19:07;;;;;;;20.73;11.25;;;;;;;2.42;57.32;102739.69;5022220;28;20057;-80
2022/03/15 07:21:33;;;;;;;22.50;11.18;;;;;;;2.38;57.55;102735.28;5023836;28;20082;-79
2022/03/15 07:23:59;;;;;;;22.92;12.02;;;;;;;2.26;57.61;102735.88;5037722;28;20139;-80
2022/03/15 07:26:25;;;;;;;23.73;11.35;;;;;;;2.37;57.83;102737.00;5041960;28;20365;-79
2022/03/15 07:28:50;;;;;;;22.15;10.75;;;;;;;2.35;57.67;102738.69;5038611;28;21558;-81
2022/03/15 07:31:16;;;;;;;20.27;11.45;;;;;;;2.46;57.67;102738.94;5039997;28;20032;-81
2022/03/15 07:33:41;;;;;;;21.58;12.07;;;;;;;2.54;57.83;102732.25;5040668;28;20119;-81
2022/03/15 07:36:07;;;;;;;21.58;11.55;;;;;;;2.56;57.83;102738.34;5041989;28;20393;-78
2022/03/15 07:38:33;;;;;;;18.05;11.60;;;;;;;2.62;58.15;102738.44;5037424;28;20142;-79
2022/03/15 07:41:01;;;;;;;21.45;12.38;;;;;;;2.66;58.07;102742.84;5037865;28;20665;-80
2022/03/15 07:43:27;;;;;;;19.85;11.18;;;;;;;2.79;58.21;102733.69;5039296;28;20052;-79
2022/03/15 07:45:53;;;;;;;20.85;12.45;;;;;;;2.89;57.79;102734.75;5038226;28;20466;-79
2022/03/15 07:48:19;;;;;;;18.35;11.73;;;;;;;2.84;57.52;102728.63;5038937;28;20041;-81
2022/03/15 07:50:45;;;;;;;15.23;9.82;;;;;;;2.70;57.32;102723.16;5037030;28;20025;-80
2022/03/15 07:53:11;;;;;;;16.92;9.77;;;;;;;2.56;57.33;102730.59;5042306;28;20127;-79
2022/03/15 07:55:36;;;;;;;19.00;10.38;;;;;;;2.59;57.54;102724.63;5038704;28;20095;-79
2022/03/15 07:58:03;;;;;;;17.80;10.57;;;;;;;2.61;57.55;102728.13;5035955;28;20044;-80
2022/03/15 08:00:28;;;;;;;15.13;9.57;;;;;;;2.61;57.69;102723.81;5039272;28;20063;-78
2022/03/15 08:02:54;;;;;;;18.15;9.82;;;;;;;2.61;57.70;102718.66;5021289;28;20044;-79
2022/03/15 08:05:21;;;;;;;16.48;9.32;;;;;;;2.62;57.98;102717.78;5038989;28;20534;-79
2022/03/15 08:07:46;;;;;;;19.10;10.63;;;;;;;2.65;57.88;102714.44;5042807;28;20398;-80
2022/03/15 08:10:12;;;;;;;13.98;10.20;;;;;;;2.71;58.38;102710.28;5044917;28;20028;-78
2022/03/15 08:12:39;;;;;;;17.60;9.80;;;;;;;2.74;58.23;102718.09;5041928;28;20140;-79
2022/03/15 08:15:06;;;;;;;19.25;10.90;;;;;;;2.84;58.15;102711.41;5038955;28;20040;-80
2022/03/15 08:17:35;;;;;;;21.70;11.45;;;;;;;3.01;58.38;102714.38;5022154;28;20060;-83
2022/03/15 08:20:01;;;;;;;24.75;11.55;;;;;;;3.01;58.13;102716.06;5017638;28;20037;-81
2022/03/15 08:22:29;;;;;;;20.63;11.98;;;;;;;3.10;58.18;102719.72;5040075;28;20055;-81
2022/03/15 08:24:55;;;;;;;27.70;13.95;;;;;;;3.12;58.33;102710.28;5036944;28;20133;-81
2022/03/15 08:27:21;;;;;;;21.75;11.63;;;;;;;3.08;58.06;102705.03;5043375;28;20045;-80
2022/03/15 08:29:46;;;;;;;27.48;11.25;;;;;;;3.16;58.15;102708.66;5036842;28;20509;-81
2022/03/15 08:32:12;;;;;;;27.48;12.40;;;;;;;3.25;58.05;102713.09;5022078;28;20094;-80
2022/03/15 08:34:38;;;;;;;20.30;10.43;;;;;;;3.34;58.39;102703.00;5037042;28;20036;-82
2022/03/15 08:37:04;;;;;;;20.00;11.38;;;;;;;3.29;57.89;102705.50;5020836;28;20077;-81
2022/03/15 08:39:30;;;;;;;30.77;12.15;;;;;;;3.36;58.08;102703.91;5039360;28;20070;-79
2022/03/15 08:41:56;;;;;;;26.10;12.65;;;;;;;3.49;58.23;102702.41;5017202;28;20037;-79
2022/03/15 08:44:22;;;;;;;21.90;12.48;;;;;;;3.62;58.29;102701.78;5019269;28;20071;-80
2022/03/15 08:46:49;;;;;;;24.83;15.43;;;;;;;3.70;58.00;102694.19;5037516;28;20032;-80
2022/03/15 08:49:15;;;;;;;29.13;15.63;;;;;;;3.79;57.78;102702.13;5035610;28;20048;-79
2022/03/15 08:51:42;;;;;;;26.33;13.93;;;;;;;3.88;57.97;102697.09;5017140;28;20099;-79
2022/03/15 08:54:08;;;;;;;35.53;16.70;;;;;;;3.92;57.61;102696.31;5013563;28;20041;-78
2022/03/15 08:56:35;;;;;;;32.63;13.48;;;;;;;3.95;57.79;102695.50;5018431;28;20049;-79
2022/03/15 08:59:01;;;;;;;29.60;12.40;;;;;;;4.05;57.74;102696.50;5038780;28;20051;-82
2022/03/15 09:01:27;;;;;;;23.73;11.65;;;;;;;4.15;57.94;102695.81;5019895;28;20341;-81
2022/03/15 09:03:52;;;;;;;27.00;12.48;;;;;;;4.08;57.56;102694.84;5035784;28;20052;-79
2022/03/15 09:06:17;;;;;;;26.08;12.80;;;;;;;4.27;57.38;102693.41;5043166;28;20514;-79
2022/03/15 09:08:43;;;;;;;24.20;12.70;;;;;;;4.34;57.71;102702.13;5021231;28;20045;-82
2022/03/15 09:11:08;;;;;;;27.20;13.35;;;;;;;4.36;56.94;102696.16;5019114;28;20175;-79
2022/03/15 09:13:35;;;;;;;24.52;13.02;;;;;;;4.26;56.83;102689.09;5034772;28;20608;-79
2022/03/15 09:16:00;;;;;;;29.85;13.85;;;;;;;4.30;57.21;102687.44;5034929;28;20037;-79
2022/03/15 09:18:26;;;;;;;25.42;13.23;;;;;;;4.32;57.52;102689.19;5034945;28;20094;-80
2022/03/15 09:20:53;;;;;;;21.83;12.93;;;;;;;4.34;57.32;102678.84;5038635;28;20180;-79
2022/03/15 09:23:20;;;;;;;24.70;12.98;;;;;;;4.20;57.19;102684.66;5034021;28;20048;-79
2022/03/15 09:25:47;;;;;;;29.52;13.45;;;;;;;4.43;57.47;102676.38;5032252;28;20040;-78
2022/03/15 09:28:13;;;;;;;30.30;14.60;;;;;;;4.47;57.14;102673.00;5017779;28;20122;-79
2022/03/15 09:30:38;;;;;;;28.55;14.05;;;;;;;4.55;56.82;102675.69;5017804;28;20128;-78
2022/03/15 09:33:05;;;;;;;26.42;13.75;;;;;;;4.55;57.09;102673.13;5017267;28;20184;-79
2022/03/15 09:35:30;;;;;;;34.60;16.30;;;;;;;4.75;57.59;102673.38;5017726;28;20044;-77
2022/03/15 09:37:56;;;;;;;25.10;13.15;;;;;;;4.80;56.76;102669.13;5016478;28;20320;-81
2022/03/15 09:40:25;;;;;;;35.00;14.63;;;;;;;4.94;57.09;102675.38;5017296;28;20039;-81
2022/03/15 09:42:58;;;;;;;31.13;14.25;;;;;;;5.02;57.22;102672.91;5032805;28;20037;-80
2022/03/15 09:45:29;;;;;;;27.48;14.90;;;;;;;5.15;56.92;102669.59;5035216;28;20028;-77
2022/03/15 09:47:57;;;;;;;26.48;13.77;;;;;;;5.28;56.87;102672.31;5016663;28;20069;-79
2022/03/15 09:50:24;;;;;;;27.98;13.68;;;;;;;5.17;56.24;102665.31;5035273;28;20040;-79
2022/03/15 09:52:53;;;;;;;29.42;14.95;;;;;;;5.24;56.54;102669.69;5034496;28;20362;-79
2022/03/15 09:55:19;;;;;;;31.73;14.55;;;;;;;5.23;56.45;102660.19;5002751;28;20025;-79
2022/03/15 09:57:45;;;;;;;29.33;14.57;;;;;;;5.25;56.78;102661.03;5020456;28;20060;-77
2022/03/15 10:00:13;;;;;;;31.17;16.45;;;;;;;5.39;56.87;102661.22;5036858;28;20115;-79
2022/03/15 10:02:44;;;;;;;31.90;15.45;;;;;;;5.49;56.47;102659.56;5020998;28;20486;-79
2022/03/15 10:05:10;;;;;;;29.33;14.23;;;;;;;5.51;56.40;102659.59;5034339;28;20153;-79
2022/03/15 10:07:36;;;;;;;22.90;14.82;;;;;;;5.52;56.28;102656.13;5037389;28;20041;-79
2022/03/15 10:10:06;;;;;;;28.67;14.82;;;;;;;5.48;56.33;102659.56;5040089;28;20067;-79
2022/03/15 10:12:32;;;;;;;30.30;16.08;;;;;;;5.48;56.05;102650.06;5038273;28;20532;-80
2022/03/15 10:15:10;;;;;;;29.42;14.65;;;;;;;5.53;55.49;102647.53;5017401;28;20033;-78
2022/03/15 10:17:46;;;;;;;31.92;15.75;;;;;;;5.62;55.91;102645.00;5037774;28;20044;-79
2022/03/15 10:20:14;;;;;;;32.88;15.07;;;;;;;5.65;55.82;102645.88;5037940;28;20064;-78
2022/03/15 10:22:50;;;;;;;38.28;16.65;;;;;;;5.69;55.73;102640.75;5038586;28;20045;-80
2022/03/15 10:25:16;;;;;;;30.35;15.20;;;;;;;5.76;55.57;102643.38;5038831;28;20037;-79
2022/03/15 10:27:41;;;;;;;35.22;17.38;;;;;;;5.93;55.53;102633.16;5036176;28;20072;-78
2022/03/15 10:30:08;;;;;;;31.35;16.38;;;;;;;6.13;55.28;102632.41;5021663;28;20492;-78
2022/03/15 10:32:34;;;;;;;32.10;16.35;;;;;;;6.13;54.43;102629.81;5021741;28;20056;-78
2022/03/15 10:35:08;;;;;;;35.83;15.77;;;;;;;6.14;54.74;102623.78;5040989;28;20543;-78
2022/03/15 10:37:35;;;;;;;28.92;14.50;;;;;;;6.29;54.29;102623.91;5022328;28;20194;-80
2022/03/15 10:40:02;;;;;;;32.15;15.82;;;;;;;6.41;54.38;102621.38;5035711;28;20131;-78
2022/03/15 10:42:28;;;;;;;32.92;15.68;;;;;;;6.52;53.65;102620.56;5042284;28;20581;-80
2022/03/15 10:44:54;;;;;;;28.77;15.80;;;;;;;6.57;53.67;102613.66;5036494;28;20571;-79
2022/03/15 10:47:21;;;;;;;26.60;15.65;;;;;;;6.89;53.64;102614.66;5038228;28;20709;-80
2022/03/15 10:49:59;;;;;;;31.80;16.73;;;;;;;7.14;53.14;102606.94;5039754;28;20044;-79
2022/03/15 10:52:32;;;;;;;29.08;15.88;;;;;;;7.13;52.34;102615.56;5015908;28;20123;-80
2022/03/15 10:55:32;;;;;;;34.33;15.00;;;;;;;6.95;52.98;102610.34;5033637;28;20083;-79
2022/03/15 10:58:01;;;;;;;28.55;14.95;;;;;;;7.34;52.76;102601.75;5036978;28;20067;-77
2022/03/15 11:00:35;;;;;;;34.78;16.65;;;;;;;7.73;52.19;102606.16;5039852;28;20043;-78
2022/03/15 11:03:02;;;;;;;33.28;16.42;;;;;;;7.70;51.36;102607.88;5040891;28;20049;-79
2022/03/15 11:05:33;;;;;;;25.27;14.15;;;;;;;7.80;50.84;102599.22;5023766;28;20140;-79
2022/03/15 11:08:06;;;;;;;28.10;15.45;;;;;;;8.17;51.13;102606.94;5046186;28;20060;-80
2022/03/15 11:10:32;;;;;;;23.35;14.38;;;;;;;8.49;49.49;102595.56;5042302;28;20064;-76
2022/03/15 11:13:02;;;;;;;33.42;14.68;;;;;;;8.91;49.84;102593.66;5040564;28;20056;-80
2022/03/15 11:15:30;;;;;;;29.58;14.32;;;;;;;9.35;48.60;102590.75;5040569;28;20033;-78
2022/03/15 11:18:04;;;;;;;32.55;15.05;;;;;;;9.68;48.85;102588.78;5041016;28;20087;-81
2022/03/15 11:20:34;;;;;;;24.75;14.13;;;;;;;9.43;47.41;102584.63;5040161;28;20079;-81
2022/03/15 11:23:01;;;;;;;26.73;15.07;;;;;;;9.35;48.89;102584.69;5008671;28;20037;-79